sensor_id;sensor_type;location;lat;lon;timestamp;pressure;altitude;pressure_sealevel;temperature;humidity
74552;BME280;63025;55.472;38.432;2022-08-25T00:01:40;101295.53;;;16.93;65.08
74552;BME280;63025;55.472;38.432;2022-08-25T00:04:08;101292.25;;;16.91;65.05
74552;BME280;63025;55.472;38.432;2022-08-25T00:06:36;101290.78;;;16.88;65.17
74552;BME280;63025;55.472;38.432;2022-08-25T00:09:03;101292.69;;;16.87;65.53
74552;BME280;63025;55.472;38.432;2022-08-25T00:11:32;101288.06;;;16.88;65.23
74552;BME280;63025;55.472;38.432;2022-08-25T00:14:02;101291.44;;;16.83;65.07
74552;BME280;63025;55.472;38.432;2022-08-25T00:16:29;101290.22;;;16.79;65.21
74552;BME280;63025;55.472;38.432;2022-08-25T00:19:05;101292.34;;;16.77;65.57
74552;BME280;63025;55.472;38.432;2022-08-25T00:21:32;101291.50;;;16.77;65.66
74552;BME280;63025;55.472;38.432;2022-08-25T00:23:58;101286.28;;;16.75;65.50
74552;BME280;63025;55.472;38.432;2022-08-25T00:26:24;101284.47;;;16.69;65.35
74552;BME280;63025;55.472;38.432;2022-08-25T00:28:52;101290.72;;;16.70;65.40
74552;BME280;63025;55.472;38.432;2022-08-25T00:31:19;101291.97;;;16.67;65.37
74552;BME280;63025;55.472;38.432;2022-08-25T00:33:46;101290.31;;;16.66;65.49
74552;BME280;63025;55.472;38.432;2022-08-25T00:36:13;101296.78;;;16.65;65.75
74552;BME280;63025;55.472;38.432;2022-08-25T00:38:39;101284.06;;;16.66;65.87
74552;BME280;63025;55.472;38.432;2022-08-25T00:41:06;101294.91;;;16.66;65.84
74552;BME280;63025;55.472;38.432;2022-08-25T00:43:56;101295.34;;;16.63;65.87
74552;BME280;63025;55.472;38.432;2022-08-25T00:46:29;101296.81;;;16.59;65.79
74552;BME280;63025;55.472;38.432;2022-08-25T00:49:02;101292.03;;;16.54;65.63
74552;BME280;63025;55.472;38.432;2022-08-25T00:51:31;101287.44;;;16.55;66.08
74552;BME280;63025;55.472;38.432;2022-08-25T00:53:58;101289.97;;;16.49;65.98
74552;BME280;63025;55.472;38.432;2022-08-25T00:56:24;101283.31;;;16.45;66.12
74552;BME280;63025;55.472;38.432;2022-08-25T00:58:51;101285.81;;;16.47;66.20
74552;BME280;63025;55.472;38.432;2022-08-25T01:01:17;101293.34;;;16.45;66.38
74552;BME280;63025;55.472;38.432;2022-08-25T01:03:43;101287.28;;;16.43;66.35
74552;BME280;63025;55.472;38.432;2022-08-25T01:06:09;101291.25;;;16.40;66.42
74552;BME280;63025;55.472;38.432;2022-08-25T01:08:36;101290.47;;;16.40;66.48
74552;BME280;63025;55.472;38.432;2022-08-25T01:11:05;101286.06;;;16.39;66.56
74552;BME280;63025;55.472;38.432;2022-08-25T01:13:35;101289.84;;;16.38;66.65
74552;BME280;63025;55.472;38.432;2022-08-25T01:16:02;101285.88;;;16.34;66.48
74552;BME280;63025;55.472;38.432;2022-08-25T01:18:41;101284.22;;;16.33;66.11
74552;BME280;63025;55.472;38.432;2022-08-25T01:21:07;101280.50;;;16.27;66.68
74552;BME280;63025;55.472;38.432;2022-08-25T01:23:33;101281.53;;;16.26;67.11
74552;BME280;63025;55.472;38.432;2022-08-25T01:26:06;101281.53;;;16.26;67.00
74552;BME280;63025;55.472;38.432;2022-08-25T01:28:33;101273.63;;;16.25;67.03
74552;BME280;63025;55.472;38.432;2022-08-25T01:30:59;101273.00;;;16.23;67.03
74552;BME280;63025;55.472;38.432;2022-08-25T01:33:25;101274.66;;;16.24;66.92
74552;BME280;63025;55.472;38.432;2022-08-25T01:35:51;101283.00;;;16.22;66.96
74552;BME280;63025;55.472;38.432;2022-08-25T01:38:17;101276.13;;;16.20;67.02
74552;BME280;63025;55.472;38.432;2022-08-25T01:40:45;101282.63;;;16.19;67.21
74552;BME280;63025;55.472;38.432;2022-08-25T01:45:43;101280.56;;;16.14;67.40
74552;BME280;63025;55.472;38.432;2022-08-25T01:48:09;101280.97;;;16.11;67.53
74552;BME280;63025;55.472;38.432;2022-08-25T01:50:36;101274.72;;;16.10;67.52
74552;BME280;63025;55.472;38.432;2022-08-25T01:53:07;101278.94;;;16.06;67.50
74552;BME280;63025;55.472;38.432;2022-08-25T01:55:36;101282.69;;;16.05;67.75
74552;BME280;63025;55.472;38.432;2022-08-25T01:58:22;101284.56;;;16.05;67.60
74552;BME280;63025;55.472;38.432;2022-08-25T02:00:50;101279.34;;;16.03;67.46
74552;BME280;63025;55.472;38.432;2022-08-25T02:03:19;101284.59;;;15.98;67.62
74552;BME280;63025;55.472;38.432;2022-08-25T02:05:45;101282.69;;;15.99;67.52
74552;BME280;63025;55.472;38.432;2022-08-25T02:08:10;101283.75;;;15.98;67.68
74552;BME280;63025;55.472;38.432;2022-08-25T02:10:37;101289.19;;;15.98;67.54
74552;BME280;63025;55.472;38.432;2022-08-25T02:13:04;101294.81;;;15.96;67.60
74552;BME280;63025;55.472;38.432;2022-08-25T02:15:30;101287.72;;;15.95;67.53
74552;BME280;63025;55.472;38.432;2022-08-25T02:17:56;101289.81;;;15.93;67.60
74552;BME280;63025;55.472;38.432;2022-08-25T02:20:23;101289.19;;;15.91;67.44
74552;BME280;63025;55.472;38.432;2022-08-25T02:22:50;101284.81;;;15.90;67.51
74552;BME280;63025;55.472;38.432;2022-08-25T02:25:16;101295.06;;;15.88;67.71
74552;BME280;63025;55.472;38.432;2022-08-25T02:27:42;101286.94;;;15.88;67.84
74552;BME280;63025;55.472;38.432;2022-08-25T02:30:09;101289.63;;;15.88;67.67
74552;BME280;63025;55.472;38.432;2022-08-25T02:32:35;101286.94;;;15.88;67.98
74552;BME280;63025;55.472;38.432;2022-08-25T02:35:00;101285.84;;;15.89;67.91
74552;BME280;63025;55.472;38.432;2022-08-25T02:37:28;101281.06;;;15.91;68.06
74552;BME280;63025;55.472;38.432;2022-08-25T02:39:53;101281.06;;;15.91;68.07
74552;BME280;63025;55.472;38.432;2022-08-25T02:42:19;101273.97;;;15.90;68.03
74552;BME280;63025;55.472;38.432;2022-08-25T02:44:46;101267.06;;;15.94;67.80
74552;BME280;63025;55.472;38.432;2022-08-25T02:47:12;101271.66;;;15.94;68.05
74552;BME280;63025;55.472;38.432;2022-08-25T02:49:38;101274.78;;;15.97;68.25
74552;BME280;63025;55.472;38.432;2022-08-25T02:52:04;101276.66;;;15.97;68.22
74552;BME280;63025;55.472;38.432;2022-08-25T02:54:29;101276.00;;;16.01;68.36
74552;BME280;63025;55.472;38.432;2022-08-25T02:56:55;101270.16;;;16.04;67.98
74552;BME280;63025;55.472;38.432;2022-08-25T02:59:21;101264.31;;;16.07;67.78
74552;BME280;63025;55.472;38.432;2022-08-25T03:01:47;101274.28;;;16.13;68.04
74552;BME280;63025;55.472;38.432;2022-08-25T03:04:12;101273.41;;;16.20;68.13
74552;BME280;63025;55.472;38.432;2022-08-25T03:06:38;101279.66;;;16.27;68.14
74552;BME280;63025;55.472;38.432;2022-08-25T03:09:06;101280.25;;;16.35;67.70
74552;BME280;63025;55.472;38.432;2022-08-25T03:11:31;101272.88;;;16.42;67.83
74552;BME280;63025;55.472;38.432;2022-08-25T03:13:57;101280.81;;;16.44;67.76
74552;BME280;63025;55.472;38.432;2022-08-25T03:16:24;101278.28;;;16.49;67.94
74552;BME280;63025;55.472;38.432;2022-08-25T03:18:50;101284.06;;;16.59;67.66
74552;BME280;63025;55.472;38.432;2022-08-25T03:21:16;101278.63;;;16.66;67.65
74552;BME280;63025;55.472;38.432;2022-08-25T03:23:42;101284.00;;;16.72;67.59
74552;BME280;63025;55.472;38.432;2022-08-25T03:26:08;101283.50;;;16.82;67.47
74552;BME280;63025;55.472;38.432;2022-08-25T03:28:53;101289.06;;;16.94;67.32
74552;BME280;63025;55.472;38.432;2022-08-25T03:31:21;101283.97;;;17.04;67.17
74552;BME280;63025;55.472;38.432;2022-08-25T03:33:46;101288.09;;;17.13;66.90
74552;BME280;63025;55.472;38.432;2022-08-25T03:36:14;101287.59;;;17.22;67.13
74552;BME280;63025;55.472;38.432;2022-08-25T03:38:40;101274.56;;;17.31;66.63
74552;BME280;63025;55.472;38.432;2022-08-25T03:41:19;101287.09;;;17.50;66.09
74552;BME280;63025;55.472;38.432;2022-08-25T03:55:53;101266.16;;;18.72;63.36
74552;BME280;63025;55.472;38.432;2022-08-25T03:58:18;101272.91;;;18.81;63.43
74552;BME280;63025;55.472;38.432;2022-08-25T04:00:44;101266.53;;;18.87;63.07
74552;BME280;63025;55.472;38.432;2022-08-25T04:03:10;101258.41;;;18.99;63.17
74552;BME280;63025;55.472;38.432;2022-08-25T04:05:35;101262.19;;;19.10;62.60
74552;BME280;63025;55.472;38.432;2022-08-25T04:08:01;101260.88;;;19.24;62.67
74552;BME280;63025;55.472;38.432;2022-08-25T04:10:28;101253.78;;;19.34;62.01
74552;BME280;63025;55.472;38.432;2022-08-25T04:12:54;101257.72;;;19.50;61.69
74552;BME280;63025;55.472;38.432;2022-08-25T04:15:20;101253.66;;;19.64;61.43
74552;BME280;63025;55.472;38.432;2022-08-25T04:17:46;101255.06;;;19.78;61.15
74552;BME280;63025;55.472;38.432;2022-08-25T04:20:11;101252.91;;;19.92;60.24
74552;BME280;63025;55.472;38.432;2022-08-25T04:22:37;101255.09;;;20.07;60.05
74552;BME280;63025;55.472;38.432;2022-08-25T04:25:05;101256.25;;;20.23;60.20
74552;BME280;63025;55.472;38.432;2022-08-25T04:27:31;101250.25;;;20.37;59.92
74552;BME280;63025;55.472;38.432;2022-08-25T04:29:56;101241.53;;;20.52;59.32
74552;BME280;63025;55.472;38.432;2022-08-25T04:32:22;101250.25;;;20.66;59.16
74552;BME280;63025;55.472;38.432;2022-08-25T04:34:48;101246.34;;;20.78;58.67
74552;BME280;63025;55.472;38.432;2022-08-25T04:37:13;101238.41;;;20.94;58.39
74552;BME280;63025;55.472;38.432;2022-08-25T04:39:39;101240.81;;;21.07;58.03
74552;BME280;63025;55.472;38.432;2022-08-25T04:42:05;101240.22;;;21.21;58.08
74552;BME280;63025;55.472;38.432;2022-08-25T04:44:31;101243.47;;;21.35;57.43
74552;BME280;63025;55.472;38.432;2022-08-25T04:46:57;101242.78;;;21.45;57.48
74552;BME280;63025;55.472;38.432;2022-08-25T04:49:23;101233.13;;;21.59;56.99
74552;BME280;63025;55.472;38.432;2022-08-25T04:51:49;101241.28;;;21.76;56.52
74552;BME280;63025;55.472;38.432;2022-08-25T04:54:16;101242.03;;;21.93;55.93
74552;BME280;63025;55.472;38.432;2022-08-25T04:56:42;101237.34;;;22.10;55.10
74552;BME280;63025;55.472;38.432;2022-08-25T04:59:10;101238.09;;;22.27;54.68
74552;BME280;63025;55.472;38.432;2022-08-25T05:01:37;101234.13;;;22.40;54.40
74552;BME280;63025;55.472;38.432;2022-08-25T05:04:06;101240.28;;;22.52;54.28
74552;BME280;63025;55.472;38.432;2022-08-25T05:06:33;101239.25;;;22.63;53.04
74552;BME280;63025;55.472;38.432;2022-08-25T05:09:00;101222.66;;;22.75;53.05
74552;BME280;63025;55.472;38.432;2022-08-25T05:11:26;101231.88;;;22.91;52.60
74552;BME280;63025;55.472;38.432;2022-08-25T05:13:54;101230.03;;;23.06;52.43
74552;BME280;63025;55.472;38.432;2022-08-25T05:16:22;101230.94;;;23.17;51.93
74552;BME280;63025;55.472;38.432;2022-08-25T05:18:48;101226.41;;;23.33;51.32
74552;BME280;63025;55.472;38.432;2022-08-25T05:21:17;101227.84;;;23.46;50.99
74552;BME280;63025;55.472;38.432;2022-08-25T05:23:43;101229.56;;;23.57;50.02
74552;BME280;63025;55.472;38.432;2022-08-25T05:26:14;101220.59;;;23.71;49.86
74552;BME280;63025;55.472;38.432;2022-08-25T05:28:41;101224.50;;;23.86;49.98
74552;BME280;63025;55.472;38.432;2022-08-25T05:31:08;101222.88;;;24.00;49.39
74552;BME280;63025;55.472;38.432;2022-08-25T05:33:36;101216.91;;;24.18;49.13
74552;BME280;63025;55.472;38.432;2022-08-25T05:36:02;101223.00;;;24.30;48.79
74552;BME280;63025;55.472;38.432;2022-08-25T05:38:28;101223.56;;;24.42;47.65
74552;BME280;63025;55.472;38.432;2022-08-25T05:41:03;101225.53;;;24.57;46.98
74552;BME280;63025;55.472;38.432;2022-08-25T05:43:30;101229.66;;;24.70;47.33
74552;BME280;63025;55.472;38.432;2022-08-25T05:45:57;101221.66;;;24.83;46.37
74552;BME280;63025;55.472;38.432;2022-08-25T05:48:24;101226.09;;;24.95;46.26
74552;BME280;63025;55.472;38.432;2022-08-25T05:50:52;101218.66;;;25.05;45.70
74552;BME280;63025;55.472;38.432;2022-08-25T05:53:19;101225.25;;;25.19;45.53
74552;BME280;63025;55.472;38.432;2022-08-25T05:55:45;101221.94;;;25.33;45.16
74552;BME280;63025;55.472;38.432;2022-08-25T05:58:11;101216.94;;;25.45;43.94
74552;BME280;63025;55.472;38.432;2022-08-25T06:00:37;101206.72;;;25.55;42.86
74552;BME280;63025;55.472;38.432;2022-08-25T06:03:03;101212.22;;;25.66;42.75
74552;BME280;63025;55.472;38.432;2022-08-25T06:05:29;101219.31;;;25.82;42.83
74552;BME280;63025;55.472;38.432;2022-08-25T06:07:56;101213.47;;;25.93;42.04
74552;BME280;63025;55.472;38.432;2022-08-25T06:10:22;101205.94;;;26.09;42.52
74552;BME280;63025;55.472;38.432;2022-08-25T06:12:48;101201.44;;;26.28;41.92
74552;BME280;63025;55.472;38.432;2022-08-25T06:15:19;101204.66;;;26.46;42.17
74552;BME280;63025;55.472;38.432;2022-08-25T06:17:46;101207.28;;;26.61;41.97
74552;BME280;63025;55.472;38.432;2022-08-25T06:20:15;101210.75;;;26.77;40.96
74552;BME280;63025;55.472;38.432;2022-08-25T06:22:41;101205.09;;;26.92;41.36
74552;BME280;63025;55.472;38.432;2022-08-25T06:25:09;101213.47;;;27.11;40.55
74552;BME280;63025;55.472;38.432;2022-08-25T06:27:36;101214.75;;;27.23;40.00
74552;BME280;63025;55.472;38.432;2022-08-25T06:30:03;101216.53;;;27.38;39.19
74552;BME280;63025;55.472;38.432;2022-08-25T06:32:34;101217.97;;;27.54;38.84
74552;BME280;63025;55.472;38.432;2022-08-25T06:35:02;101222.25;;;27.70;38.03
74552;BME280;63025;55.472;38.432;2022-08-25T06:37:28;101216.53;;;27.86;37.79
74552;BME280;63025;55.472;38.432;2022-08-25T06:39:54;101220.22;;;28.00;37.87
74552;BME280;63025;55.472;38.432;2022-08-25T06:42:20;101209.06;;;28.05;37.35
74552;BME280;63025;55.472;38.432;2022-08-25T06:44:46;101210.56;;;28.16;37.55
74552;BME280;63025;55.472;38.432;2022-08-25T06:47:12;101215.63;;;28.33;37.68
74552;BME280;63025;55.472;38.432;2022-08-25T06:49:41;101207.66;;;28.45;36.52
74552;BME280;63025;55.472;38.432;2022-08-25T06:52:07;101207.75;;;28.59;36.73
74552;BME280;63025;55.472;38.432;2022-08-25T06:54:33;101208.63;;;28.73;34.94
74552;BME280;63025;55.472;38.432;2022-08-25T06:56:59;101204.38;;;28.80;34.12
74552;BME280;63025;55.472;38.432;2022-08-25T06:59:26;101200.91;;;28.89;33.09
74552;BME280;63025;55.472;38.432;2022-08-25T07:01:52;101203.09;;;29.05;33.20
74552;BME280;63025;55.472;38.432;2022-08-25T07:04:18;101202.28;;;29.18;32.69
74552;BME280;63025;55.472;38.432;2022-08-25T07:06:45;101207.34;;;29.30;33.26
74552;BME280;63025;55.472;38.432;2022-08-25T07:09:11;101202.44;;;29.41;31.95
74552;BME280;63025;55.472;38.432;2022-08-25T07:11:39;101196.81;;;29.46;31.65
74552;BME280;63025;55.472;38.432;2022-08-25T07:14:07;101197.81;;;29.50;31.58
74552;BME280;63025;55.472;38.432;2022-08-25T07:16:34;101201.50;;;29.59;31.75
74552;BME280;63025;55.472;38.432;2022-08-25T07:19:00;101205.53;;;29.67;31.75
74552;BME280;63025;55.472;38.432;2022-08-25T07:21:27;101194.63;;;29.70;31.65
74552;BME280;63025;55.472;38.432;2022-08-25T07:23:54;101205.50;;;29.80;31.77
74552;BME280;63025;55.472;38.432;2022-08-25T07:26:29;101199.72;;;29.90;31.26
74552;BME280;63025;55.472;38.432;2022-08-25T07:28:57;101201.19;;;30.02;31.23
74552;BME280;63025;55.472;38.432;2022-08-25T07:31:24;101199.00;;;30.12;30.45
74552;BME280;63025;55.472;38.432;2022-08-25T07:33:49;101202.28;;;30.14;29.64
74552;BME280;63025;55.472;38.432;2022-08-25T07:36:34;101196.34;;;30.21;29.38
74552;BME280;63025;55.472;38.432;2022-08-25T07:39:00;101198.88;;;30.31;29.64
74552;BME280;63025;55.472;38.432;2022-08-25T07:41:38;101195.84;;;30.41;29.69
74552;BME280;63025;55.472;38.432;2022-08-25T07:44:05;101195.50;;;30.43;28.88
74552;BME280;63025;55.472;38.432;2022-08-25T07:46:31;101199.63;;;30.45;28.69
74552;BME280;63025;55.472;38.432;2022-08-25T07:48:56;101189.94;;;30.56;28.07
74552;BME280;63025;55.472;38.432;2022-08-25T07:51:22;101195.78;;;30.77;28.56
74552;BME280;63025;55.472;38.432;2022-08-25T07:53:48;101189.22;;;30.95;28.06
74552;BME280;63025;55.472;38.432;2022-08-25T07:56:15;101179.09;;;31.22;27.96
74552;BME280;63025;55.472;38.432;2022-08-25T07:58:42;101187.88;;;31.55;27.72
74552;BME280;63025;55.472;38.432;2022-08-25T08:01:16;101184.03;;;31.73;26.86
74552;BME280;63025;55.472;38.432;2022-08-25T08:03:43;101176.56;;;32.17;26.74
74552;BME280;63025;55.472;38.432;2022-08-25T08:06:10;101182.78;;;32.57;25.76
74552;BME280;63025;55.472;38.432;2022-08-25T08:08:41;101173.94;;;32.80;25.57
74552;BME280;63025;55.472;38.432;2022-08-25T08:13:54;101172.00;;;34.07;24.84
74552;BME280;63025;55.472;38.432;2022-08-25T08:16:22;101160.91;;;34.73;24.40
74552;BME280;63025;55.472;38.432;2022-08-25T08:18:49;101174.69;;;35.60;23.85
74552;BME280;63025;55.472;38.432;2022-08-25T08:21:20;101161.44;;;36.21;23.41
74552;BME280;63025;55.472;38.432;2022-08-25T08:23:48;101160.16;;;36.74;22.07
74552;BME280;63025;55.472;38.432;2022-08-25T08:26:15;101152.16;;;37.36;20.86
74552;BME280;63025;55.472;38.432;2022-08-25T08:28:41;101158.34;;;37.76;20.88
74552;BME280;63025;55.472;38.432;2022-08-25T08:31:08;101156.41;;;38.54;20.57
74552;BME280;63025;55.472;38.432;2022-08-25T08:33:33;101154.34;;;38.93;19.59
74552;BME280;63025;55.472;38.432;2022-08-25T08:36:08;101151.28;;;39.24;19.18
74552;BME280;63025;55.472;38.432;2022-08-25T08:38:35;101149.44;;;39.88;18.74
74552;BME280;63025;55.472;38.432;2022-08-25T08:43:55;101152.38;;;40.59;17.89
74552;BME280;63025;55.472;38.432;2022-08-25T08:46:48;101146.59;;;41.33;17.46
74552;BME280;63025;55.472;38.432;2022-08-25T08:52:18;101146.00;;;42.37;15.94
74552;BME280;63025;55.472;38.432;2022-08-25T08:54:49;101148.09;;;41.16;16.04
74552;BME280;63025;55.472;38.432;2022-08-25T08:57:24;101136.94;;;41.30;16.35
74552;BME280;63025;55.472;38.432;2022-08-25T08:59:59;101140.69;;;42.18;15.69
74552;BME280;63025;55.472;38.432;2022-08-25T09:02:39;101136.44;;;42.88;15.66
74552;BME280;63025;55.472;38.432;2022-08-25T09:05:11;101133.22;;;43.21;14.99
74552;BME280;63025;55.472;38.432;2022-08-25T09:08:03;101139.69;;;43.39;14.69
74552;BME280;63025;55.472;38.432;2022-08-25T09:10:49;101127.44;;;43.88;14.56
74552;BME280;63025;55.472;38.432;2022-08-25T09:13:37;101121.66;;;44.13;13.95
74552;BME280;63025;55.472;38.432;2022-08-25T09:16:16;101123.56;;;44.41;14.47
74552;BME280;63025;55.472;38.432;2022-08-25T09:30:36;101109.84;;;44.91;13.88
74552;BME280;63025;55.472;38.432;2022-08-25T09:33:05;101119.31;;;45.63;13.11
74552;BME280;63025;55.472;38.432;2022-08-25T09:35:34;101109.66;;;45.57;12.62
74552;BME280;63025;55.472;38.432;2022-08-25T09:38:01;101104.84;;;46.15;12.52
74552;BME280;63025;55.472;38.432;2022-08-25T09:40:29;101109.78;;;46.41;12.25
74552;BME280;63025;55.472;38.432;2022-08-25T09:42:59;101113.66;;;46.24;11.99
74552;BME280;63025;55.472;38.432;2022-08-25T09:45:44;101104.97;;;46.08;12.39
74552;BME280;63025;55.472;38.432;2022-08-25T09:48:25;101106.44;;;46.20;12.16
74552;BME280;63025;55.472;38.432;2022-08-25T09:50:57;101104.97;;;46.38;12.15
74552;BME280;63025;55.472;38.432;2022-08-25T09:53:23;101103.06;;;45.98;12.16
74552;BME280;63025;55.472;38.432;2022-08-25T09:55:59;101096.56;;;46.55;11.63
74552;BME280;63025;55.472;38.432;2022-08-25T09:58:29;101088.38;;;47.30;11.47
74552;BME280;63025;55.472;38.432;2022-08-25T10:01:33;101093.28;;;47.73;11.40
74552;BME280;63025;55.472;38.432;2022-08-25T10:04:11;101097.84;;;47.47;11.01
74552;BME280;63025;55.472;38.432;2022-08-25T10:06:44;101091.66;;;47.29;11.15
74552;BME280;63025;55.472;38.432;2022-08-25T10:09:22;101091.69;;;46.82;11.05
74552;BME280;63025;55.472;38.432;2022-08-25T10:11:49;101089.66;;;47.49;10.89
74552;BME280;63025;55.472;38.432;2022-08-25T10:14:37;101074.72;;;48.01;10.33
74552;BME280;63025;55.472;38.432;2022-08-25T10:19:51;101071.19;;;47.14;10.72
74552;BME280;63025;55.472;38.432;2022-08-25T10:22:22;101072.28;;;47.20;10.47
74552;BME280;63025;55.472;38.432;2022-08-25T10:24:50;101068.91;;;46.82;11.13
74552;BME280;63025;55.472;38.432;2022-08-25T10:30:16;101064.59;;;47.80;10.58
74552;BME280;63025;55.472;38.432;2022-08-25T10:35:17;101059.50;;;47.08;11.07
74552;BME280;63025;55.472;38.432;2022-08-25T10:38:00;101055.97;;;46.27;11.07
74552;BME280;63025;55.472;38.432;2022-08-25T10:40:45;101054.78;;;46.21;11.38
74552;BME280;63025;55.472;38.432;2022-08-25T10:43:24;101057.19;;;46.26;11.69
74552;BME280;63025;55.472;38.432;2022-08-25T10:46:19;101042.13;;;46.29;11.43
74552;BME280;63025;55.472;38.432;2022-08-25T10:49:06;101044.16;;;46.52;11.73
74552;BME280;63025;55.472;38.432;2022-08-25T10:51:43;101039.56;;;46.62;11.42
74552;BME280;63025;55.472;38.432;2022-08-25T10:57:35;101021.06;;;47.40;11.11
74552;BME280;63025;55.472;38.432;2022-08-25T11:05:48;101023.75;;;47.47;10.86
74552;BME280;63025;55.472;38.432;2022-08-25T11:08:33;101018.81;;;47.87;10.31
74552;BME280;63025;55.472;38.432;2022-08-25T11:11:07;101017.75;;;47.81;10.67
74552;BME280;63025;55.472;38.432;2022-08-25T11:13:47;101010.91;;;47.95;10.49
74552;BME280;63025;55.472;38.432;2022-08-25T11:19:06;101015.69;;;47.62;10.61
74552;BME280;63025;55.472;38.432;2022-08-25T11:21:56;101012.56;;;48.12;10.65
74552;BME280;63025;55.472;38.432;2022-08-25T11:24:46;101002.25;;;47.98;9.77
74552;BME280;63025;55.472;38.432;2022-08-25T11:28:11;100990.97;;;47.95;9.89
74552;BME280;63025;55.472;38.432;2022-08-25T11:30:13;100992.06;;;48.49;9.73
74552;BME280;63025;55.472;38.432;2022-08-25T11:32:44;100988.75;;;48.83;9.42
74552;BME280;63025;55.472;38.432;2022-08-25T11:35:12;100984.88;;;48.45;9.58
74552;BME280;63025;55.472;38.432;2022-08-25T11:37:58;100980.19;;;48.02;10.04
74552;BME280;63025;55.472;38.432;2022-08-25T11:56:42;100962.78;;;46.58;11.23
74552;BME280;63025;55.472;38.432;2022-08-25T12:05:09;100952.69;;;48.28;10.38
74552;BME280;63025;55.472;38.432;2022-08-25T12:07:58;100943.91;;;48.51;9.71
74552;BME280;63025;55.472;38.432;2022-08-25T12:11:05;100947.31;;;46.59;10.66
74552;BME280;63025;55.472;38.432;2022-08-25T12:16:02;100945.03;;;43.54;12.77
74552;BME280;63025;55.472;38.432;2022-08-25T12:23:27;100928.75;;;43.72;13.62
74552;BME280;63025;55.472;38.432;2022-08-25T12:25:57;100929.66;;;43.55;13.21
74552;BME280;63025;55.472;38.432;2022-08-25T12:30:57;100922.63;;;41.94;14.33
74552;BME280;63025;55.472;38.432;2022-08-25T12:36:03;100911.78;;;39.96;15.73
74552;BME280;63025;55.472;38.432;2022-08-25T12:38:37;100913.91;;;39.06;17.11
74552;BME280;63025;55.472;38.432;2022-08-25T12:43:38;100908.81;;;38.36;17.96
74552;BME280;63025;55.472;38.432;2022-08-25T12:52:10;100897.66;;;42.42;14.77
74552;BME280;63025;55.472;38.432;2022-08-25T12:54:51;100900.47;;;42.46;14.68
74552;BME280;63025;55.472;38.432;2022-08-25T12:59:50;100892.78;;;42.32;13.93
74552;BME280;63025;55.472;38.432;2022-08-25T13:08:23;100891.56;;;42.55;14.11
74552;BME280;63025;55.472;38.432;2022-08-25T13:11:16;100893.50;;;42.90;14.19
74552;BME280;63025;55.472;38.432;2022-08-25T13:16:21;100889.97;;;43.66;13.28
74552;BME280;63025;55.472;38.432;2022-08-25T13:18:47;100885.22;;;43.45;13.05
74552;BME280;63025;55.472;38.432;2022-08-25T13:23:52;100883.28;;;43.97;13.09
74552;BME280;63025;55.472;38.432;2022-08-25T13:26:25;100876.66;;;43.55;13.37
74552;BME280;63025;55.472;38.432;2022-08-25T13:28:58;100874.75;;;43.31;13.47
74552;BME280;63025;55.472;38.432;2022-08-25T13:31:25;100872.38;;;43.30;13.32
74552;BME280;63025;55.472;38.432;2022-08-25T13:36:25;100862.91;;;42.10;14.34
74552;BME280;63025;55.472;38.432;2022-08-25T13:39:22;100871.75;;;41.69;14.83
74552;BME280;63025;55.472;38.432;2022-08-25T13:41:50;100869.03;;;40.93;15.23
74552;BME280;63025;55.472;38.432;2022-08-25T13:44:19;100867.13;;;39.95;16.26
74552;BME280;63025;55.472;38.432;2022-08-25T13:46:45;100857.88;;;39.24;16.76
74552;BME280;63025;55.472;38.432;2022-08-25T13:49:23;100866.66;;;38.59;17.28
74552;BME280;63025;55.472;38.432;2022-08-25T13:51:51;100857.06;;;38.37;18.22
74552;BME280;63025;55.472;38.432;2022-08-25T13:54:28;100851.97;;;38.46;17.44
74552;BME280;63025;55.472;38.432;2022-08-25T13:57:02;100848.47;;;38.53;17.65
74552;BME280;63025;55.472;38.432;2022-08-25T13:59:35;100848.38;;;38.00;17.83
74552;BME280;63025;55.472;38.432;2022-08-25T14:02:03;100840.81;;;37.36;18.39
74552;BME280;63025;55.472;38.432;2022-08-25T14:10:00;100839.16;;;35.79;20.48
74552;BME280;63025;55.472;38.432;2022-08-25T14:15:27;100833.94;;;35.22;21.11
74552;BME280;63025;55.472;38.432;2022-08-25T14:18:07;100837.09;;;34.92;21.16
74552;BME280;63025;55.472;38.432;2022-08-25T14:20:34;100837.09;;;34.92;21.62
74552;BME280;63025;55.472;38.432;2022-08-25T14:23:09;100826.75;;;34.81;21.73
74552;BME280;63025;55.472;38.432;2022-08-25T14:25:38;100829.69;;;34.60;22.18
74552;BME280;63025;55.472;38.432;2022-08-25T14:28:08;100832.75;;;34.43;21.95
74552;BME280;63025;55.472;38.432;2022-08-25T14:30:38;100825.06;;;34.28;22.94
74552;BME280;63025;55.472;38.432;2022-08-25T14:33:04;100827.59;;;34.08;22.43
74552;BME280;63025;55.472;38.432;2022-08-25T14:35:30;100829.47;;;33.92;23.04
74552;BME280;63025;55.472;38.432;2022-08-25T14:37:56;100827.09;;;33.70;22.85
74552;BME280;63025;55.472;38.432;2022-08-25T14:40:22;100816.81;;;33.49;23.03
74552;BME280;63025;55.472;38.432;2022-08-25T14:42:48;100813.16;;;33.37;23.68
74552;BME280;63025;55.472;38.432;2022-08-25T14:45:15;100812.94;;;33.30;23.98
74552;BME280;63025;55.472;38.432;2022-08-25T14:47:43;100808.84;;;33.27;23.97
74552;BME280;63025;55.472;38.432;2022-08-25T14:50:11;100813.47;;;33.02;23.68
74552;BME280;63025;55.472;38.432;2022-08-25T14:52:40;100808.22;;;32.89;23.87
74552;BME280;63025;55.472;38.432;2022-08-25T14:55:07;100808.88;;;32.86;24.48
74552;BME280;63025;55.472;38.432;2022-08-25T14:57:33;100801.91;;;32.79;24.69